createdAt,value
2022-09-12T00:01:48.752Z,2.87
2022-09-12T00:04:15.434Z,3.00
2022-09-12T00:06:42.451Z,2.83
2022-09-12T00:09:12.383Z,3.13
2022-09-12T00:11:41.197Z,2.80
2022-09-12T00:14:09.363Z,2.90
2022-09-12T00:16:37.207Z,3.00
2022-09-12T00:19:05.253Z,2.90
2022-09-12T00:21:34.384Z,3.00
2022-09-12T00:24:01.260Z,2.63
2022-09-12T00:26:28.160Z,2.83
2022-09-12T00:28:54.861Z,2.80
2022-09-12T00:31:26.714Z,2.80
2022-09-12T00:33:56.431Z,3.00
2022-09-12T00:36:25.051Z,2.93
2022-09-12T00:38:51.803Z,2.70
2022-09-12T00:41:27.861Z,2.80
2022-09-12T00:44:00.346Z,2.93
2022-09-12T00:46:49.339Z,3.00
2022-09-12T00:49:33.514Z,2.80
2022-09-12T00:52:08.236Z,2.90
2022-09-12T00:54:40.728Z,2.93
2022-09-12T00:57:09.826Z,2.97
2022-09-12T00:59:43.686Z,3.10
2022-09-12T01:02:11.409Z,2.70
2022-09-12T01:04:39.082Z,3.27
2022-09-12T01:07:07.870Z,3.00
2022-09-12T01:09:36.479Z,2.87
2022-09-12T01:12:03.995Z,3.00
2022-09-12T01:14:31.334Z,3.20
2022-09-12T01:16:58.048Z,2.70
2022-09-12T01:19:52.653Z,2.90
2022-09-12T01:23:02.344Z,2.90
2022-09-12T01:25:46.970Z,2.83
2022-09-12T01:28:27.219Z,2.80
2022-09-12T01:31:05.725Z,3.03
2022-09-12T01:33:44.505Z,3.17
2022-09-12T01:36:36.265Z,2.80
2022-09-12T01:39:10.050Z,3.33
2022-09-12T01:42:11.155Z,3.03
2022-09-12T01:45:02.999Z,3.13
2022-09-12T01:47:40.932Z,3.40
2022-09-12T01:50:30.058Z,3.50
2022-09-12T01:53:02.361Z,3.87
2022-09-12T01:55:40.514Z,3.77
2022-09-12T01:58:15.561Z,3.97
2022-09-12T02:01:04.554Z,3.70
2022-09-12T02:03:41.454Z,3.53
2022-09-12T02:06:19.723Z,3.83
2022-09-12T02:09:18.332Z,3.60
2022-09-12T02:11:46.453Z,4.20
2022-09-12T02:14:21.474Z,3.70
2022-09-12T02:16:53.536Z,3.57
2022-09-12T02:19:23.862Z,3.67
2022-09-12T02:21:54.134Z,3.77
2022-09-12T02:24:29.074Z,3.53
2022-09-12T02:27:18.402Z,3.90
2022-09-12T02:29:45.526Z,3.93
2022-09-12T02:32:24.117Z,3.83
2022-09-12T02:35:09.238Z,3.50
2022-09-12T02:38:12.331Z,3.70
2022-09-12T02:40:39.141Z,4.30
2022-09-12T02:43:06.839Z,3.80
2022-09-12T02:45:34.791Z,5.00
2022-09-12T02:48:10.000Z,4.30
2022-09-12T02:50:37.302Z,4.80
2022-09-12T02:53:05.642Z,4.07
2022-09-12T02:55:34.164Z,4.27
2022-09-12T02:58:08.649Z,4.37
2022-09-12T03:00:41.948Z,4.23
2022-09-12T03:03:44.402Z,4.20
2022-09-12T03:06:37.758Z,4.40
2022-09-12T03:09:27.546Z,4.73
2022-09-12T03:12:20.602Z,4.83
2022-09-12T03:15:04.211Z,4.27
2022-09-12T03:18:00.216Z,4.50
2022-09-12T03:20:44.616Z,4.50
2022-09-12T03:23:36.783Z,4.80
2022-09-12T03:26:12.979Z,5.20
2022-09-12T03:28:41.421Z,4.00
2022-09-12T03:31:19.605Z,4.43
2022-09-12T03:33:46.559Z,4.33
2022-09-12T03:36:22.753Z,4.83
2022-09-12T03:38:49.600Z,4.70
2022-09-12T03:41:16.203Z,4.90
2022-09-12T03:43:42.852Z,4.33
2022-09-12T03:46:09.634Z,4.67
2022-09-12T03:48:36.479Z,4.70
2022-09-12T03:51:05.859Z,4.90
2022-09-12T03:53:32.816Z,5.13
2022-09-12T03:55:59.744Z,4.90
2022-09-12T03:58:30.718Z,4.80
2022-09-12T04:00:57.723Z,5.10
2022-09-12T04:03:24.343Z,5.00
2022-09-12T04:05:50.907Z,5.53
2022-09-12T04:08:17.471Z,5.57
2022-09-12T04:10:44.047Z,5.70
2022-09-12T04:13:10.651Z,5.70
2022-09-12T04:15:37.197Z,5.47
2022-09-12T04:18:06.164Z,6.13
2022-09-12T04:20:32.870Z,6.67
2022-09-12T04:22:59.443Z,6.37
2022-09-12T04:25:27.124Z,7.23
2022-09-12T04:27:53.665Z,6.87
2022-09-12T04:30:20.197Z,7.00
2022-09-12T04:32:46.797Z,6.80
2022-09-12T04:35:13.994Z,7.47
2022-09-12T04:37:40.521Z,6.77
2022-09-12T04:40:07.651Z,7.30
2022-09-12T04:42:34.264Z,6.80
2022-09-12T04:45:00.819Z,6.90
2022-09-12T04:47:27.343Z,6.73
2022-09-12T04:49:53.977Z,6.27
2022-09-12T04:52:20.580Z,5.90
2022-09-12T04:54:47.139Z,6.60
2022-09-12T04:57:13.663Z,6.30
2022-09-12T04:59:40.313Z,6.00
2022-09-12T05:02:07.024Z,7.10
2022-09-12T05:04:33.663Z,6.40
2022-09-12T05:07:00.197Z,7.50
2022-09-12T05:09:26.827Z,6.97
2022-09-12T05:12:09.179Z,6.67
2022-09-12T05:14:35.782Z,7.27
2022-09-12T05:17:03.551Z,7.90
2022-09-12T05:19:31.646Z,6.73
2022-09-12T05:21:59.052Z,6.53
2022-09-12T05:24:25.861Z,6.20
2022-09-12T05:26:52.423Z,7.00
2022-09-12T05:29:19.000Z,6.77
2022-09-12T05:31:45.707Z,6.80
2022-09-12T05:34:12.660Z,7.40
2022-09-12T05:36:39.224Z,7.20
2022-09-12T05:39:05.879Z,7.37
2022-09-12T05:41:33.849Z,7.67
2022-09-12T05:44:03.176Z,7.23
2022-09-12T05:46:32.739Z,7.43
2022-09-12T05:49:04.240Z,6.63
2022-09-12T05:51:34.702Z,6.90
2022-09-12T05:54:03.357Z,6.53
2022-09-12T05:56:37.027Z,6.50
2022-09-12T05:59:07.069Z,6.57
2022-09-12T06:01:35.043Z,6.87
2022-09-12T06:04:04.681Z,6.10
2022-09-12T06:06:35.402Z,6.30
2022-09-12T06:09:03.775Z,6.17
2022-09-12T06:11:33.284Z,6.70
2022-09-12T06:14:01.085Z,6.27
2022-09-12T06:16:29.913Z,6.50
2022-09-12T06:19:01.741Z,6.20
2022-09-12T06:21:29.174Z,6.27
2022-09-12T06:23:56.273Z,7.17
2022-09-12T06:26:25.721Z,6.13
2022-09-12T06:28:54.512Z,6.20
2022-09-12T06:31:27.811Z,5.97
2022-09-12T06:33:55.538Z,6.53
2022-09-12T06:36:24.978Z,6.47
2022-09-12T06:39:19.131Z,6.50
2022-09-12T06:41:46.385Z,6.83
2022-09-12T06:44:16.289Z,6.43
2022-09-12T06:46:44.122Z,6.57
2022-09-12T06:49:11.404Z,5.80
2022-09-12T06:51:37.976Z,5.90
2022-09-12T06:54:05.362Z,5.90
2022-09-12T06:56:32.074Z,5.43
2022-09-12T06:58:59.295Z,5.87
2022-09-12T07:01:28.525Z,5.43
2022-09-12T07:03:57.539Z,5.10
2022-09-12T07:06:31.606Z,5.47
2022-09-12T07:08:59.540Z,5.30
2022-09-12T07:11:28.819Z,5.87
2022-09-12T07:13:57.729Z,6.07
2022-09-12T07:16:24.429Z,4.70
2022-09-12T07:18:53.502Z,4.67
2022-09-12T07:21:20.768Z,6.10
2022-09-12T07:23:47.828Z,5.37
2022-09-12T07:26:15.818Z,5.73
2022-09-12T07:28:42.910Z,5.90
2022-09-12T07:31:12.711Z,6.83
2022-09-12T07:33:40.520Z,6.00
2022-09-12T07:36:11.454Z,5.90
2022-09-12T07:38:38.675Z,6.83
2022-09-12T07:41:23.208Z,7.77
2022-09-12T07:43:54.749Z,6.87
2022-09-12T07:46:23.609Z,6.40
2022-09-12T07:48:55.723Z,7.10
2022-09-12T07:51:23.372Z,6.50
2022-09-12T07:53:50.239Z,6.47
2022-09-12T07:56:18.361Z,6.37
2022-09-12T07:58:45.456Z,6.40
2022-09-12T08:01:20.456Z,5.93
2022-09-12T08:03:49.113Z,5.90
2022-09-12T08:06:20.230Z,5.40
2022-09-12T08:08:47.799Z,6.05
2022-09-12T08:11:16.379Z,5.50
2022-09-12T08:13:43.963Z,4.83
2022-09-12T08:16:14.092Z,5.50
2022-09-12T08:18:40.992Z,5.47
2022-09-12T08:21:22.430Z,4.70
2022-09-12T08:23:54.216Z,4.03
2022-09-12T08:26:21.057Z,4.60
2022-09-12T08:28:47.925Z,3.80
2022-09-12T08:31:17.062Z,3.97
2022-09-12T08:33:43.916Z,5.05
2022-09-12T08:36:18.329Z,5.15
2022-09-12T08:38:47.161Z,3.90
2022-09-12T08:41:34.934Z,3.10
2022-09-12T08:44:15.842Z,3.17
2022-09-12T08:47:11.258Z,2.58
2022-09-12T08:50:05.100Z,2.70
2022-09-12T08:52:52.852Z,2.37
2022-09-12T08:55:37.740Z,2.55
2022-09-12T08:58:20.124Z,2.30
2022-09-12T09:00:59.534Z,1.95
2022-09-12T09:03:47.128Z,2.03
2022-09-12T09:06:37.335Z,1.90
2022-09-12T09:09:33.516Z,1.95
2022-09-12T09:12:44.358Z,2.10
2022-09-12T09:15:25.894Z,2.03
2022-09-12T09:18:18.377Z,1.80
2022-09-12T09:21:02.628Z,1.90
2022-09-12T09:23:43.982Z,2.00
2022-09-12T09:26:17.751Z,1.73
2022-09-12T09:29:05.026Z,1.60
2022-09-12T09:31:37.528Z,1.50
2022-09-12T09:34:13.023Z,1.52
2022-09-12T09:37:01.332Z,1.60
2022-09-12T09:39:51.235Z,1.50
2022-09-12T09:42:46.906Z,1.70
2022-09-12T09:45:16.956Z,1.50
2022-09-12T09:47:57.115Z,1.30
2022-09-12T09:50:24.609Z,1.42
2022-09-12T09:52:52.378Z,1.60
2022-09-12T09:55:25.311Z,1.67
2022-09-12T09:57:53.236Z,1.60
2022-09-12T10:00:31.750Z,1.63
2022-09-12T10:03:35.862Z,1.48
2022-09-12T10:06:08.001Z,1.50
2022-09-12T10:08:36.959Z,1.40
2022-09-12T10:11:30.251Z,1.60
2022-09-12T10:14:00.066Z,1.40
2022-09-12T10:16:34.612Z,1.20
2022-09-12T10:19:03.664Z,1.30
2022-09-12T10:21:34.718Z,1.35
2022-09-12T10:24:18.309Z,1.30
2022-09-12T10:26:51.393Z,1.17
2022-09-12T10:29:32.920Z,1.38
2022-09-12T10:32:03.475Z,1.83
2022-09-12T10:34:35.142Z,1.30
2022-09-12T10:37:28.746Z,1.30
2022-09-12T10:39:58.635Z,1.50
2022-09-12T10:42:51.717Z,1.50
2022-09-12T10:45:35.431Z,1.48
2022-09-12T10:48:21.917Z,1.30
2022-09-12T10:50:48.476Z,1.40
2022-09-12T10:53:20.562Z,1.15
2022-09-12T10:56:02.174Z,1.80
2022-09-12T10:59:20.484Z,1.40
2022-09-12T11:01:50.675Z,1.30
2022-09-12T11:04:45.004Z,1.25
2022-09-12T11:07:30.274Z,1.33
2022-09-12T11:10:18.498Z,1.50
2022-09-12T11:13:25.268Z,1.25
2022-09-12T11:16:25.522Z,1.30
2022-09-12T11:19:23.290Z,1.98
2022-09-12T11:22:22.103Z,1.70
2022-09-12T11:25:13.043Z,1.70
2022-09-12T11:27:54.836Z,1.50
2022-09-12T11:30:22.294Z,1.60
2022-09-12T11:33:07.835Z,1.50
2022-09-12T11:35:55.253Z,1.52
2022-09-12T11:38:50.019Z,1.63
2022-09-12T11:41:34.694Z,1.75
2022-09-12T11:44:14.759Z,1.52
2022-09-12T11:46:43.638Z,1.45
2022-09-12T11:49:13.461Z,1.45
2022-09-12T11:51:56.915Z,1.70
2022-09-12T11:54:54.060Z,1.50
2022-09-12T11:57:28.096Z,1.80
2022-09-12T12:00:03.638Z,1.70
2022-09-12T12:02:37.057Z,1.80
2022-09-12T12:05:20.590Z,1.45
2022-09-12T12:07:53.964Z,1.30
2022-09-12T12:10:57.314Z,1.60
2022-09-12T12:13:35.229Z,1.70
2022-09-12T12:16:15.761Z,4.50
2022-09-12T12:18:43.585Z,1.23
2022-09-12T12:21:21.518Z,1.40
2022-09-12T12:24:09.837Z,1.33
2022-09-12T12:26:39.614Z,1.52
2022-09-12T12:29:18.373Z,1.50
2022-09-12T12:32:00.559Z,1.20
2022-09-12T12:34:34.724Z,1.33
2022-09-12T12:37:21.749Z,1.50
2022-09-12T12:40:01.013Z,1.30
2022-09-12T12:42:36.676Z,1.45
2022-09-12T12:45:23.462Z,1.60
2022-09-12T12:47:54.266Z,1.35
2022-09-12T12:50:29.230Z,1.50
2022-09-12T12:52:57.627Z,1.50
2022-09-12T12:55:35.272Z,1.40
2022-09-12T12:58:03.999Z,1.40
2022-09-12T13:00:40.002Z,2.00
2022-09-12T13:03:06.696Z,1.38
2022-09-12T13:05:51.338Z,1.35
2022-09-12T13:08:17.822Z,1.60
2022-09-12T13:11:00.883Z,1.33
2022-09-12T13:13:36.327Z,1.50
2022-09-12T13:16:03.097Z,1.70
2022-09-12T13:18:48.165Z,1.38
2022-09-12T13:21:17.088Z,1.33
2022-09-12T13:23:44.442Z,1.45
2022-09-12T13:26:23.191Z,1.60
2022-09-12T13:28:51.395Z,1.30
2022-09-12T13:31:25.345Z,1.40
2022-09-12T13:33:58.794Z,1.60
2022-09-12T13:37:03.086Z,1.60
2022-09-12T13:40:19.254Z,1.40
2022-09-12T13:42:49.015Z,1.27
2022-09-12T13:45:20.976Z,1.50
2022-09-12T13:47:58.834Z,1.50
2022-09-12T13:50:32.956Z,1.50
2022-09-12T13:53:04.161Z,1.30
2022-09-12T13:55:37.474Z,1.40
2022-09-12T13:58:06.796Z,1.40
2022-09-12T14:00:35.392Z,1.30
2022-09-12T14:03:31.487Z,1.40
2022-09-12T14:05:58.095Z,1.27
2022-09-12T14:08:25.250Z,1.35
2022-09-12T14:10:51.901Z,1.42
2022-09-12T14:13:26.972Z,1.40
2022-09-12T14:15:55.653Z,1.38
2022-09-12T14:18:25.672Z,1.45
2022-09-12T14:20:54.043Z,1.67
2022-09-12T14:23:32.904Z,1.50
2022-09-12T14:26:06.070Z,1.60
2022-09-12T14:28:34.293Z,1.35
2022-09-12T14:31:06.867Z,1.42
2022-09-12T14:33:48.940Z,1.50
2022-09-12T14:36:33.762Z,1.50
2022-09-12T14:39:05.148Z,1.38
2022-09-12T14:41:35.186Z,2.00
2022-09-12T14:44:06.043Z,2.00
2022-09-12T14:46:35.455Z,1.90
2022-09-12T14:49:07.922Z,1.60
2022-09-12T14:51:40.790Z,1.20
2022-09-12T14:54:27.298Z,1.40
2022-09-12T14:56:57.374Z,1.60
2022-09-12T14:59:37.595Z,1.23
2022-09-12T15:02:19.698Z,1.48
2022-09-12T15:04:50.379Z,1.50
2022-09-12T15:07:33.724Z,1.95
2022-09-12T15:10:05.850Z,1.50
2022-09-12T15:12:32.510Z,1.50
2022-09-12T15:15:20.929Z,1.50
2022-09-12T15:17:47.733Z,1.83
2022-09-12T15:20:14.421Z,1.50
2022-09-12T15:22:42.112Z,1.77
2022-09-12T15:25:12.180Z,1.75
2022-09-12T15:27:42.287Z,1.30
2022-09-12T15:30:10.298Z,1.42
2022-09-12T15:32:37.470Z,1.38
2022-09-12T15:35:10.114Z,1.23
2022-09-12T15:37:36.655Z,1.40
2022-09-12T15:40:04.645Z,1.35
2022-09-12T15:42:31.686Z,1.50
2022-09-12T15:45:02.636Z,1.35
2022-09-12T15:47:29.418Z,1.85
2022-09-12T15:49:56.008Z,1.25
2022-09-12T15:52:22.530Z,1.20
2022-09-12T15:54:49.072Z,1.65
2022-09-12T15:57:15.635Z,1.55
2022-09-12T15:59:42.180Z,1.30
2022-09-12T16:02:11.294Z,2.28
2022-09-12T16:04:37.847Z,1.40
2022-09-12T16:07:04.560Z,1.50
2022-09-12T16:09:31.245Z,1.50
2022-09-12T16:11:57.788Z,1.92
2022-09-12T16:14:24.350Z,1.77
2022-09-12T16:16:54.606Z,1.42
2022-09-12T16:19:22.047Z,1.85
2022-09-12T16:21:48.655Z,1.60
2022-09-12T16:24:15.695Z,1.77
2022-09-12T16:26:42.293Z,1.73
2022-09-12T16:29:12.338Z,1.50
2022-09-12T16:31:39.963Z,1.70
2022-09-12T16:34:07.234Z,1.67
2022-09-12T16:36:33.819Z,1.50
2022-09-12T16:39:00.417Z,2.33
2022-09-12T16:41:27.048Z,1.83
2022-09-12T16:43:54.583Z,1.83
2022-09-12T16:46:28.596Z,1.67
2022-09-12T16:48:58.226Z,1.70
2022-09-12T16:51:28.271Z,1.75
2022-09-12T16:53:55.728Z,1.90
2022-09-12T16:56:23.364Z,2.03
2022-09-12T16:58:50.465Z,2.20
2022-09-12T17:01:20.178Z,1.85
2022-09-12T17:03:47.446Z,2.13
2022-09-12T17:06:17.268Z,1.98
2022-09-12T17:08:49.508Z,2.03
2022-09-12T17:11:19.054Z,1.88
2022-09-12T17:14:09.732Z,1.92
2022-09-12T17:16:42.605Z,1.98
2022-09-12T17:19:17.171Z,2.25
2022-09-12T17:21:48.665Z,2.30
2022-09-12T17:24:18.719Z,2.55
2022-09-12T17:26:46.007Z,2.58
2022-09-12T17:29:13.926Z,2.33
2022-09-12T17:31:41.806Z,2.13
2022-09-12T17:34:08.759Z,2.00
2022-09-12T17:36:35.526Z,2.45
2022-09-12T17:39:03.981Z,2.42
2022-09-12T17:41:31.993Z,2.20
2022-09-12T17:44:00.425Z,2.40
2022-09-12T17:46:34.730Z,2.63
2022-09-12T17:49:07.463Z,2.53
2022-09-12T17:51:34.427Z,3.50
2022-09-12T17:54:04.361Z,2.83
2022-09-12T17:56:32.284Z,2.92
2022-09-12T17:58:59.939Z,3.05
2022-09-12T18:01:46.775Z,3.20
2022-09-12T18:04:13.754Z,2.80
2022-09-12T18:06:47.590Z,2.85
2022-09-12T18:09:16.460Z,13.93
2022-09-12T18:11:43.315Z,6.00
2022-09-12T18:14:13.878Z,6.18
2022-09-12T18:16:41.095Z,5.28
2022-09-12T18:19:07.761Z,5.47
2022-09-12T18:21:34.464Z,5.70
2022-09-12T18:24:01.322Z,7.93
2022-09-12T18:26:29.304Z,8.55
2022-09-12T18:28:56.829Z,7.15
2022-09-12T18:31:27.099Z,6.45
2022-09-12T18:33:53.716Z,7.85
2022-09-12T18:36:20.922Z,5.65
2022-09-12T18:38:48.602Z,5.85
2022-09-12T18:41:23.047Z,5.85
2022-09-12T18:43:53.715Z,5.47
2022-09-12T18:46:20.440Z,5.47
2022-09-12T18:48:47.306Z,5.53
2022-09-12T18:51:16.678Z,5.43
2022-09-12T18:53:43.536Z,6.03
2022-09-12T18:56:12.733Z,6.80
2022-09-12T18:58:41.993Z,6.50
2022-09-12T19:01:10.378Z,6.50
2022-09-12T19:03:37.151Z,6.85
2022-09-12T19:06:08.625Z,6.55
2022-09-12T19:08:36.340Z,5.63
2022-09-12T19:11:03.517Z,5.63
2022-09-12T19:13:30.486Z,5.07
2022-09-12T19:15:57.046Z,5.63
2022-09-12T19:18:23.636Z,5.15
2022-09-12T19:20:51.780Z,5.65
2022-09-12T19:23:19.130Z,5.60
2022-09-12T19:25:54.838Z,5.75
2022-09-12T19:28:21.440Z,6.68
2022-09-12T19:30:48.566Z,6.50
2022-09-12T19:33:15.427Z,6.25
2022-09-12T19:35:42.586Z,6.90
2022-09-12T19:38:09.499Z,6.38
2022-09-12T19:40:37.786Z,6.20
2022-09-12T19:43:04.651Z,6.78
2022-09-12T19:45:31.516Z,5.80
2022-09-12T19:47:58.146Z,6.40
2022-09-12T19:50:24.746Z,6.20
2022-09-12T19:52:51.276Z,7.40
2022-09-12T19:55:17.904Z,6.85
2022-09-12T19:57:44.474Z,6.97
2022-09-12T20:00:11.935Z,5.93
2022-09-12T20:02:38.662Z,6.57
2022-09-12T20:05:05.779Z,6.43
2022-09-12T20:07:32.479Z,6.85
2022-09-12T20:09:59.078Z,6.95
2022-09-12T20:12:25.717Z,5.85
2022-09-12T20:14:52.611Z,6.93
2022-09-12T20:17:19.479Z,10.47
2022-09-12T20:19:46.119Z,8.02
2022-09-12T20:22:13.286Z,12.82
2022-09-12T20:24:40.664Z,10.18
2022-09-12T20:27:07.711Z,8.57
2022-09-12T20:29:34.319Z,7.90
2022-09-12T20:32:00.995Z,7.50
2022-09-12T20:34:27.641Z,8.77
2022-09-12T20:36:54.349Z,7.38
2022-09-12T20:39:22.565Z,6.83
2022-09-12T20:41:49.389Z,6.50
2022-09-12T20:44:16.378Z,6.17
2022-09-12T20:46:43.184Z,6.18
2022-09-12T20:49:10.094Z,5.50
2022-09-12T20:51:40.278Z,6.25
2022-09-12T20:54:07.316Z,5.97
2022-09-12T20:56:35.699Z,5.68
2022-09-12T20:59:03.114Z,5.65
2022-09-12T21:01:31.638Z,5.32
2022-09-12T21:04:01.164Z,5.85
2022-09-12T21:06:29.033Z,6.10
2022-09-12T21:09:00.154Z,6.10
2022-09-12T21:11:28.066Z,5.67
2022-09-12T21:13:55.203Z,5.40
2022-09-12T21:16:23.599Z,5.83
2022-09-12T21:18:59.399Z,5.13
2022-09-12T21:21:27.000Z,5.40
2022-09-12T21:23:59.997Z,5.37
2022-09-12T21:26:28.063Z,5.70
2022-09-12T21:28:55.090Z,5.75
2022-09-12T21:31:21.731Z,5.40
2022-09-12T21:33:48.734Z,5.30
2022-09-12T21:36:15.705Z,5.50
2022-09-12T21:38:42.605Z,5.32
2022-09-12T21:41:14.963Z,5.37
2022-09-12T21:43:41.759Z,5.10
2022-09-12T21:46:09.712Z,5.00
2022-09-12T21:48:36.652Z,5.27
2022-09-12T21:51:04.514Z,5.10
2022-09-12T21:53:32.024Z,5.60
2022-09-12T21:56:07.665Z,5.10
2022-09-12T21:58:35.014Z,5.50
2022-09-12T22:01:01.893Z,5.30
2022-09-12T22:03:29.372Z,5.17
2022-09-12T22:06:01.595Z,5.18
2022-09-12T22:08:29.321Z,5.25
2022-09-12T22:11:05.714Z,4.80
2022-09-12T22:13:32.578Z,4.93
2022-09-12T22:16:03.785Z,4.60
2022-09-12T22:18:34.740Z,4.70
2022-09-12T22:21:07.217Z,5.20
2022-09-12T22:23:53.177Z,5.20
2022-09-12T22:26:20.697Z,4.37
2022-09-12T22:28:47.711Z,4.57
2022-09-12T22:31:15.300Z,4.40
2022-09-12T22:33:42.294Z,4.47
2022-09-12T22:36:09.909Z,4.47
2022-09-12T22:38:36.905Z,3.83
2022-09-12T22:41:05.731Z,4.70
2022-09-12T22:43:34.619Z,4.33
2022-09-12T22:46:06.204Z,4.60
2022-09-12T22:48:36.675Z,4.13
2022-09-12T22:51:04.109Z,4.50
2022-09-12T22:53:31.404Z,3.97
2022-09-12T22:56:05.101Z,3.90
2022-09-12T22:58:38.890Z,4.40
2022-09-12T23:01:06.664Z,3.60
2022-09-12T23:03:39.055Z,4.07
2022-09-12T23:06:06.937Z,3.43
2022-09-12T23:08:38.501Z,3.70
2022-09-12T23:11:11.776Z,3.87
2022-09-12T23:13:42.410Z,3.73
2022-09-12T23:16:15.027Z,4.13
2022-09-12T23:18:44.255Z,3.83
2022-09-12T23:21:12.422Z,3.50
2022-09-12T23:23:39.816Z,4.13
2022-09-12T23:26:12.550Z,3.87
2022-09-12T23:28:40.777Z,3.97
2022-09-12T23:31:10.257Z,3.70
2022-09-12T23:33:38.431Z,3.90
2022-09-12T23:36:08.291Z,4.00
2022-09-12T23:38:36.226Z,4.13
2022-09-12T23:41:08.734Z,3.93
2022-09-12T23:43:36.209Z,4.13
2022-09-12T23:46:04.563Z,3.83
2022-09-12T23:48:32.605Z,3.70
2022-09-12T23:51:00.157Z,3.77
2022-09-12T23:53:27.249Z,3.70
2022-09-12T23:55:54.330Z,3.60
2022-09-12T23:58:23.453Z,3.83
